Time;durP1;ratioP1;P1;durP2;ratioP2;P2;SDS_P1;SDS_P2;PMS_P1;PMS_P2;Temp;Humidity;BMP_temperature;BMP_pressure;BME280_temperature;BME280_humidity;BME280_pressure;Samples;Min_cycle;Max_cycle;Signal;HPM_P1;HPM_P2
2021/03/02 00:01:48;;;;;;;29.20;18.77;;;;;;;;;;6210605;23;20165;-79
2021/03/02 00:04:17;;;;;;;34.90;20.67;;;;;;;;;;6232884;22;20171;-79
2021/03/02 00:06:50;;;;;;;31.63;19.70;;;;;;;;;;6210483;23;20184;-81
2021/03/02 00:09:19;;;;;;;25.00;19.53;;;;;;;;;;6262027;23;20189;-79
2021/03/02 00:11:48;;;;;;;26.43;19.40;;;;;;;;;;6262037;23;20632;-79
2021/03/02 00:14:17;;;;;;;28.67;19.60;;;;;;;;;;6233660;22;20180;-79
2021/03/02 00:16:51;;;;;;;25.20;18.80;;;;;;;;;;6202599;23;20178;-78
2021/03/02 00:19:22;;;;;;;28.40;19.60;;;;;;;;;;6178664;23;20163;-78
2021/03/02 00:22:03;;;;;;;28.57;19.60;;;;;;;;;;6174905;23;20171;-78
2021/03/02 00:24:33;;;;;;;29.07;18.93;;;;;;;;;;6223971;23;20185;-78
2021/03/02 00:27:01;;;;;;;26.30;18.63;;;;;;;;;;6173670;23;20485;-78
2021/03/02 00:29:30;;;;;;;26.80;19.27;;;;;;;;;;6224688;23;20203;-78
2021/03/02 00:32:03;;;;;;;29.43;19.73;;;;;;;;;;6173817;23;20166;-79
2021/03/02 00:34:32;;;;;;;24.47;17.13;;;;;;;;;;6224490;23;20165;-79
2021/03/02 00:37:04;;;;;;;27.30;19.30;;;;;;;;;;6203782;23;20193;-77
2021/03/02 00:39:33;;;;;;;27.60;18.90;;;;;;;;;;6232144;23;20166;-79
2021/03/02 00:42:01;;;;;;;25.97;18.50;;;;;;;;;;6204157;23;20171;-78
2021/03/02 00:44:30;;;;;;;30.93;19.80;;;;;;;;;;6206948;23;20170;-78
2021/03/02 00:46:58;;;;;;;27.30;19.23;;;;;;;;;;6208932;22;20169;-82
2021/03/02 00:58:58;;;;;;;29.47;22.80;;;;;;;;;;6235274;22;20211;-79
2021/03/02 01:01:29;;;;;;;28.77;21.37;;;;;;;;;;6233052;22;20168;-78
2021/03/02 01:03:58;;;;;;;28.27;21.20;;;;;;;;;;6232244;22;20173;-79
2021/03/02 01:06:26;;;;;;;29.73;22.03;;;;;;;;;;6258816;22;20186;-79
2021/03/02 01:08:55;;;;;;;33.07;22.93;;;;;;;;;;6233467;22;20193;-79
2021/03/02 01:11:24;;;;;;;30.80;21.30;;;;;;;;;;6259196;22;20170;-79
2021/03/02 01:13:53;;;;;;;32.07;22.50;;;;;;;;;;6257980;22;20178;-78
2021/03/02 01:19:32;;;;;;;29.33;21.67;;;;;;;;;;6273075;22;20201;-79
2021/03/02 01:22:12;;;;;;;31.93;22.17;;;;;;;;;;6286462;22;20174;-79
2021/03/02 01:24:40;;;;;;;35.63;25.40;;;;;;;;;;6267103;22;20192;-78
2021/03/02 01:27:09;;;;;;;30.17;22.57;;;;;;;;;;6267520;22;20179;-79
2021/03/02 01:29:38;;;;;;;34.37;25.20;;;;;;;;;;6291349;22;20199;-80
2021/03/02 01:32:07;;;;;;;31.03;23.03;;;;;;;;;;6258331;22;20171;-80
2021/03/02 01:38:14;;;;;;;30.97;22.40;;;;;;;;;;6169081;23;20622;-79
2021/03/02 01:40:45;;;;;;;27.80;21.23;;;;;;;;;;6168216;23;20171;-79
2021/03/02 01:43:31;;;;;;;28.10;22.07;;;;;;;;;;6168207;23;20175;-79
2021/03/02 01:46:23;;;;;;;30.77;22.60;;;;;;;;;;6165843;23;20198;-78
2021/03/02 01:48:51;;;;;;;30.03;21.43;;;;;;;;;;6193940;23;20197;-79
2021/03/02 01:51:20;;;;;;;34.70;24.80;;;;;;;;;;6197523;23;20177;-79
2021/03/02 01:53:49;;;;;;;35.33;22.40;;;;;;;;;;6198050;23;20521;-79
2021/03/02 01:56:18;;;;;;;34.17;22.63;;;;;;;;;;6173015;23;20662;-79
2021/03/02 01:58:47;;;;;;;35.50;23.97;;;;;;;;;;6198043;23;20177;-80
2021/03/02 02:01:15;;;;;;;34.53;24.20;;;;;;;;;;6220766;23;20174;-79
2021/03/02 02:03:46;;;;;;;31.43;22.70;;;;;;;;;;6191247;23;20504;-79
2021/03/02 02:06:18;;;;;;;32.77;22.67;;;;;;;;;;6193337;23;20198;-80
2021/03/02 02:08:58;;;;;;;33.17;23.97;;;;;;;;;;6165762;23;20169;-80
2021/03/02 02:11:35;;;;;;;31.33;23.43;;;;;;;;;;6228542;23;20160;-80
2021/03/02 02:14:11;;;;;;;30.63;22.47;;;;;;;;;;6191098;23;20166;-80
2021/03/02 02:16:41;;;;;;;28.07;22.07;;;;;;;;;;6167420;23;20160;-80
2021/03/02 02:19:20;;;;;;;33.63;22.97;;;;;;;;;;6217751;23;20180;-79
2021/03/02 02:22:03;;;;;;;31.43;22.37;;;;;;;;;;6189710;23;20164;-79
2021/03/02 02:24:37;;;;;;;35.97;23.37;;;;;;;;;;6190226;23;20188;-80
2021/03/02 02:27:06;;;;;;;31.57;21.63;;;;;;;;;;6191930;23;20203;-78
2021/03/02 02:29:36;;;;;;;29.83;22.10;;;;;;;;;;6190817;23;20200;-79
2021/03/02 02:32:05;;;;;;;34.00;22.87;;;;;;;;;;6221289;23;20384;-78
2021/03/02 02:34:33;;;;;;;36.90;23.77;;;;;;;;;;6191699;23;20200;-78
2021/03/02 02:37:02;;;;;;;30.70;22.20;;;;;;;;;;6188606;23;20639;-79
2021/03/02 02:39:32;;;;;;;34.40;22.07;;;;;;;;;;6192609;23;20173;-80
2021/03/02 02:42:00;;;;;;;33.60;21.93;;;;;;;;;;6192307;23;20613;-79
2021/03/02 02:44:30;;;;;;;34.27;23.23;;;;;;;;;;6169769;23;20169;-78
2021/03/02 02:46:59;;;;;;;33.00;23.27;;;;;;;;;;6218654;23;20176;-80
2021/03/02 02:49:27;;;;;;;33.10;22.43;;;;;;;;;;6163227;23;20192;-78
2021/03/02 02:51:55;;;;;;;29.30;21.23;;;;;;;;;;6176942;23;20185;-79
2021/03/02 02:54:24;;;;;;;32.40;23.83;;;;;;;;;;6223938;23;20169;-79
2021/03/02 02:56:53;;;;;;;33.13;22.60;;;;;;;;;;6233654;23;20180;-79
2021/03/02 02:59:22;;;;;;;31.27;20.97;;;;;;;;;;6186373;23;20177;-79
2021/03/02 03:01:53;;;;;;;30.60;21.43;;;;;;;;;;6212888;22;20353;-79
2021/03/02 03:04:23;;;;;;;32.87;21.60;;;;;;;;;;6186275;23;20165;-78
2021/03/02 03:06:53;;;;;;;28.17;21.50;;;;;;;;;;6185664;23;20220;-79
2021/03/02 03:09:22;;;;;;;27.80;20.30;;;;;;;;;;6209982;23;20198;-79
2021/03/02 03:11:58;;;;;;;34.10;21.93;;;;;;;;;;6210419;23;20168;-79
2021/03/02 03:14:45;;;;;;;33.53;23.20;;;;;;;;;;6193045;23;20190;-78
2021/03/02 03:17:14;;;;;;;30.77;23.40;;;;;;;;;;6167496;23;20160;-79
2021/03/02 03:19:43;;;;;;;31.00;23.30;;;;;;;;;;6185568;23;20513;-79
2021/03/02 03:22:11;;;;;;;33.57;23.13;;;;;;;;;;6189100;23;20176;-78
2021/03/02 03:24:39;;;;;;;31.43;23.83;;;;;;;;;;6190612;23;20525;-78
2021/03/02 03:27:08;;;;;;;33.33;23.93;;;;;;;;;;6190793;23;20172;-78
2021/03/02 03:29:36;;;;;;;33.83;23.83;;;;;;;;;;6213993;23;20189;-79
2021/03/02 03:32:05;;;;;;;32.10;24.53;;;;;;;;;;6189727;23;20647;-78
2021/03/02 03:34:34;;;;;;;33.27;22.40;;;;;;;;;;6218761;23;20213;-79
2021/03/02 03:37:02;;;;;;;29.17;21.73;;;;;;;;;;6214279;23;20183;-78
2021/03/02 03:39:30;;;;;;;30.97;21.40;;;;;;;;;;6222814;23;20158;-78
2021/03/02 03:41:58;;;;;;;31.80;23.00;;;;;;;;;;6210943;22;20159;-79
2021/03/02 03:44:26;;;;;;;31.67;22.63;;;;;;;;;;6205092;23;20178;-80
2021/03/02 03:46:53;;;;;;;32.80;22.23;;;;;;;;;;6191821;23;20509;-78
2021/03/02 03:49:21;;;;;;;31.57;21.23;;;;;;;;;;6217167;23;20177;-78
2021/03/02 03:51:50;;;;;;;35.40;24.77;;;;;;;;;;6205662;23;20188;-80
2021/03/02 03:54:20;;;;;;;28.90;22.13;;;;;;;;;;6161505;23;20175;-79
2021/03/02 03:56:49;;;;;;;32.23;23.17;;;;;;;;;;6218796;23;20176;-79
2021/03/02 03:59:16;;;;;;;28.73;22.00;;;;;;;;;;6167451;23;20168;-80
2021/03/02 04:01:45;;;;;;;29.57;20.63;;;;;;;;;;6217071;23;20172;-80
2021/03/02 04:04:13;;;;;;;28.47;22.23;;;;;;;;;;6196653;23;20164;-79
2021/03/02 04:06:41;;;;;;;32.93;23.10;;;;;;;;;;6167550;23;20173;-80
2021/03/02 04:09:09;;;;;;;31.47;22.50;;;;;;;;;;6221584;23;20172;-79
2021/03/02 04:11:38;;;;;;;27.23;20.40;;;;;;;;;;6219979;23;20198;-79
2021/03/02 04:14:05;;;;;;;29.93;21.80;;;;;;;;;;6194284;23;20178;-79
2021/03/02 04:16:33;;;;;;;33.00;21.43;;;;;;;;;;6194813;23;20185;-80
2021/03/02 04:19:01;;;;;;;28.67;22.77;;;;;;;;;;6170445;23;20183;-78
2021/03/02 04:21:29;;;;;;;30.90;22.70;;;;;;;;;;6197236;23;20169;-78
2021/03/02 04:23:57;;;;;;;31.93;22.77;;;;;;;;;;6190468;23;20165;-78
2021/03/02 04:26:26;;;;;;;29.90;22.33;;;;;;;;;;6193806;23;20192;-79
2021/03/02 04:28:54;;;;;;;33.20;22.80;;;;;;;;;;6167938;23;20172;-80
2021/03/02 04:31:21;;;;;;;28.80;21.20;;;;;;;;;;6193673;23;20192;-78
2021/03/02 04:33:50;;;;;;;30.80;23.30;;;;;;;;;;6192867;23;20199;-79
2021/03/02 04:36:18;;;;;;;30.30;22.23;;;;;;;;;;6191538;23;20194;-79
2021/03/02 04:38:46;;;;;;;31.50;22.47;;;;;;;;;;6190390;23;20167;-79
2021/03/02 04:41:13;;;;;;;41.47;25.03;;;;;;;;;;6190942;23;20164;-80
2021/03/02 04:43:42;;;;;;;37.80;25.23;;;;;;;;;;6168388;23;20179;-79
2021/03/02 04:46:09;;;;;;;34.53;22.93;;;;;;;;;;6191275;23;20670;-80
2021/03/02 04:48:37;;;;;;;35.00;23.40;;;;;;;;;;6166841;23;20176;-79
2021/03/02 04:51:05;;;;;;;35.10;24.90;;;;;;;;;;6191300;23;20199;-80
2021/03/02 04:53:34;;;;;;;32.07;23.83;;;;;;;;;;6165522;23;20173;-80
2021/03/02 04:56:01;;;;;;;36.93;24.50;;;;;;;;;;6164280;23;20202;-79
2021/03/02 04:58:29;;;;;;;30.50;23.20;;;;;;;;;;6164175;23;20180;-81
2021/03/02 05:00:58;;;;;;;33.30;22.63;;;;;;;;;;6218437;23;20176;-80
2021/03/02 05:03:26;;;;;;;32.53;22.70;;;;;;;;;;6217278;23;20691;-80
2021/03/02 05:05:53;;;;;;;30.07;23.73;;;;;;;;;;6207888;23;20188;-79
2021/03/02 05:08:21;;;;;;;34.50;23.80;;;;;;;;;;6197097;23;20163;-79
2021/03/02 05:10:48;;;;;;;32.87;23.47;;;;;;;;;;6208250;23;20199;-78
2021/03/02 05:13:16;;;;;;;32.10;22.93;;;;;;;;;;6173261;23;20176;-81
2021/03/02 05:15:44;;;;;;;33.23;21.63;;;;;;;;;;6193899;23;20188;-80
2021/03/02 05:18:13;;;;;;;31.07;23.00;;;;;;;;;;6220506;23;20176;-79
2021/03/02 05:20:41;;;;;;;34.37;23.37;;;;;;;;;;6218506;23;20176;-79
2021/03/02 05:23:09;;;;;;;28.17;21.57;;;;;;;;;;6192088;23;20179;-80
2021/03/02 05:25:37;;;;;;;29.50;21.33;;;;;;;;;;6166240;23;20198;-79
2021/03/02 05:28:05;;;;;;;31.30;21.27;;;;;;;;;;6190394;23;20191;-80
2021/03/02 05:30:33;;;;;;;34.37;23.90;;;;;;;;;;6217404;23;20520;-80
2021/03/02 05:33:01;;;;;;;30.20;22.47;;;;;;;;;;6190600;23;20174;-79
2021/03/02 05:35:30;;;;;;;29.97;22.17;;;;;;;;;;6165154;23;20195;-77
2021/03/02 05:37:57;;;;;;;30.80;21.83;;;;;;;;;;6166446;23;20181;-78
2021/03/02 05:40:25;;;;;;;30.23;22.20;;;;;;;;;;6193257;23;20164;-78
2021/03/02 05:42:53;;;;;;;28.13;21.93;;;;;;;;;;6166486;23;20176;-79
2021/03/02 05:45:20;;;;;;;32.37;23.40;;;;;;;;;;6191843;23;20185;-79
2021/03/02 05:47:48;;;;;;;32.43;22.87;;;;;;;;;;6221770;23;20173;-78
2021/03/02 05:50:17;;;;;;;31.43;22.33;;;;;;;;;;6192709;23;20195;-79
2021/03/02 05:52:45;;;;;;;33.77;22.87;;;;;;;;;;6166661;23;20186;-79
2021/03/02 05:55:13;;;;;;;33.40;21.97;;;;;;;;;;6167365;23;20193;-78
2021/03/02 05:57:42;;;;;;;29.87;21.00;;;;;;;;;;6185098;23;20421;-79
2021/03/02 06:00:11;;;;;;;33.00;24.27;;;;;;;;;;6222293;23;20512;-79
2021/03/02 06:02:39;;;;;;;29.30;22.77;;;;;;;;;;6200095;23;20302;-79
2021/03/02 06:05:08;;;;;;;31.97;21.73;;;;;;;;;;6173468;23;20604;-78
2021/03/02 06:07:36;;;;;;;32.93;23.37;;;;;;;;;;6179256;22;20174;-77
2021/03/02 06:10:05;;;;;;;29.83;22.23;;;;;;;;;;6214790;22;20203;-76
2021/03/02 06:12:51;;;;;;;34.07;22.60;;;;;;;;;;6189769;23;20207;-81
2021/03/02 06:15:20;;;;;;;32.33;23.40;;;;;;;;;;6214944;23;20231;-79
2021/03/02 06:18:11;;;;;;;32.23;21.67;;;;;;;;;;6214056;23;20196;-78
2021/03/02 06:20:40;;;;;;;31.27;22.30;;;;;;;;;;6180260;23;20380;-79
2021/03/02 06:23:19;;;;;;;34.00;23.70;;;;;;;;;;6194161;23;20174;-79
2021/03/02 06:25:48;;;;;;;33.53;23.03;;;;;;;;;;6167947;23;20198;-80
2021/03/02 06:28:34;;;;;;;29.83;22.57;;;;;;;;;;6167849;23;20183;-79
2021/03/02 06:31:02;;;;;;;30.20;21.53;;;;;;;;;;6171264;23;20188;-80
2021/03/02 06:33:29;;;;;;;30.60;21.37;;;;;;;;;;6214906;22;20203;-79
2021/03/02 06:35:57;;;;;;;34.27;23.10;;;;;;;;;;6211572;23;20199;-80
2021/03/02 06:38:30;;;;;;;28.30;20.73;;;;;;;;;;6225811;23;20159;-78
2021/03/02 06:40:59;;;;;;;28.80;19.90;;;;;;;;;;6180659;23;20167;-80
2021/03/02 06:43:30;;;;;;;29.00;21.23;;;;;;;;;;6206467;23;20183;-78
2021/03/02 06:45:59;;;;;;;32.63;20.00;;;;;;;;;;6202551;23;20188;-79
2021/03/02 06:48:30;;;;;;;33.43;20.17;;;;;;;;;;6194057;23;20170;-78
2021/03/02 06:50:58;;;;;;;31.83;21.57;;;;;;;;;;6193165;23;20187;-79
2021/03/02 06:53:26;;;;;;;28.93;20.77;;;;;;;;;;6164348;23;20178;-79
2021/03/02 06:56:23;;;;;;;29.63;19.77;;;;;;;;;;6191788;23;20479;-79
2021/03/02 06:59:09;;;;;;;29.47;20.13;;;;;;;;;;6168174;23;20178;-79
2021/03/02 07:01:42;;;;;;;33.87;22.20;;;;;;;;;;6191104;23;20156;-78
2021/03/02 07:04:13;;;;;;;30.03;21.73;;;;;;;;;;6164026;23;20187;-78
2021/03/02 07:06:42;;;;;;;29.10;20.03;;;;;;;;;;6182751;23;20172;-78
2021/03/02 07:09:13;;;;;;;31.67;19.40;;;;;;;;;;6183796;23;20172;-78
2021/03/02 07:11:42;;;;;;;31.67;21.13;;;;;;;;;;6198672;23;20215;-78
2021/03/02 07:14:16;;;;;;;32.77;21.23;;;;;;;;;;6171847;23;20171;-79
2021/03/02 07:16:50;;;;;;;32.93;20.17;;;;;;;;;;6170204;23;20158;-77
2021/03/02 07:19:19;;;;;;;28.63;20.23;;;;;;;;;;6200385;23;20163;-78
2021/03/02 07:21:49;;;;;;;29.10;20.23;;;;;;;;;;6167924;23;20479;-77
2021/03/02 07:24:19;;;;;;;31.07;20.43;;;;;;;;;;6227887;23;20157;-78
2021/03/02 07:26:47;;;;;;;34.30;21.47;;;;;;;;;;6171087;23;20174;-79
2021/03/02 07:29:15;;;;;;;33.20;21.17;;;;;;;;;;6159089;23;20216;-79
2021/03/02 07:31:43;;;;;;;34.80;22.87;;;;;;;;;;6159398;23;20194;-79
2021/03/02 07:34:12;;;;;;;33.07;22.57;;;;;;;;;;6158465;23;20171;-79
2021/03/02 07:36:41;;;;;;;36.30;23.43;;;;;;;;;;6211237;23;20170;-78
2021/03/02 07:39:17;;;;;;;36.07;23.50;;;;;;;;;;6165805;23;20543;-79
2021/03/02 07:41:46;;;;;;;40.60;24.13;;;;;;;;;;6188722;23;20176;-80
2021/03/02 07:44:15;;;;;;;37.03;22.83;;;;;;;;;;6187057;23;20174;-80
2021/03/02 07:46:48;;;;;;;38.40;23.70;;;;;;;;;;6188324;23;20170;-78
2021/03/02 07:49:36;;;;;;;34.67;22.57;;;;;;;;;;6218808;23;20498;-79
2021/03/02 07:52:22;;;;;;;31.90;21.67;;;;;;;;;;6167344;23;20538;-79
2021/03/02 07:55:21;;;;;;;31.30;22.23;;;;;;;;;;6216685;23;20204;-79
2021/03/02 07:58:13;;;;;;;39.97;23.17;;;;;;;;;;6192318;23;20177;-81
2021/03/02 08:00:42;;;;;;;32.27;21.87;;;;;;;;;;6163412;23;20171;-79
2021/03/02 08:03:30;;;;;;;39.87;23.63;;;;;;;;;;6192635;23;20173;-80
2021/03/02 08:06:01;;;;;;;34.63;22.97;;;;;;;;;;6223517;23;20191;-77
2021/03/02 08:08:39;;;;;;;30.67;21.53;;;;;;;;;;6204569;23;20163;-78
2021/03/02 08:11:30;;;;;;;30.57;20.67;;;;;;;;;;6222264;23;20205;-80
2021/03/02 08:13:58;;;;;;;31.70;21.80;;;;;;;;;;6184607;23;20175;-80
2021/03/02 08:16:53;;;;;;;33.13;21.67;;;;;;;;;;6232134;23;20531;-79
2021/03/02 08:19:40;;;;;;;30.87;19.93;;;;;;;;;;6201844;23;20169;-79
2021/03/02 08:22:50;;;;;;;34.33;22.70;;;;;;;;;;6196276;23;20148;-80
2021/03/02 08:25:27;;;;;;;32.60;23.07;;;;;;;;;;6162386;23;20251;-79
2021/03/02 08:28:10;;;;;;;34.17;21.83;;;;;;;;;;6163084;23;20169;-80
2021/03/02 08:30:39;;;;;;;33.60;20.50;;;;;;;;;;6186322;23;20175;-80
2021/03/02 08:33:10;;;;;;;28.17;18.37;;;;;;;;;;6162978;23;20191;-80
2021/03/02 08:35:41;;;;;;;33.67;18.03;;;;;;;;;;6190568;23;20196;-80
2021/03/02 08:38:16;;;;;;;35.57;19.37;;;;;;;;;;6118470;23;20521;-79
2021/03/02 08:40:46;;;;;;;29.77;18.03;;;;;;;;;;6216402;23;20178;-81
2021/03/02 08:43:18;;;;;;;32.77;20.00;;;;;;;;;;6211479;23;20179;-80
2021/03/02 08:45:49;;;;;;;34.97;20.37;;;;;;;;;;6163858;23;20192;-79
2021/03/02 08:48:24;;;;;;;35.60;21.07;;;;;;;;;;6163304;23;20398;-80
2021/03/02 08:50:54;;;;;;;35.27;19.73;;;;;;;;;;6188421;23;20168;-80
2021/03/02 08:53:48;;;;;;;34.03;20.40;;;;;;;;;;6187942;23;20187;-81
2021/03/02 08:57:03;;;;;;;29.80;19.93;;;;;;;;;;6170968;23;20177;-80
2021/03/02 08:59:50;;;;;;;30.43;20.23;;;;;;;;;;6187504;23;20152;-79
2021/03/02 09:03:51;;;;;;;27.57;19.70;;;;;;;;;;6201699;23;20172;-81
2021/03/02 09:06:21;;;;;;;34.30;20.43;;;;;;;;;;6188919;23;20187;-82
2021/03/02 09:08:52;;;;;;;31.80;21.40;;;;;;;;;;6165179;23;20168;-80
2021/03/02 09:11:23;;;;;;;31.40;21.40;;;;;;;;;;6181767;23;20175;-81
2021/03/02 09:13:51;;;;;;;27.17;19.70;;;;;;;;;;6184130;23;20168;-80
2021/03/02 09:16:31;;;;;;;35.30;22.33;;;;;;;;;;6190696;23;20192;-84
2021/03/02 09:19:13;;;;;;;34.10;21.00;;;;;;;;;;6190031;23;20160;-80
2021/03/02 09:21:44;;;;;;;36.87;21.10;;;;;;;;;;6166746;23;20578;-80
2021/03/02 09:24:16;;;;;;;32.30;22.47;;;;;;;;;;6170287;23;20166;-81
2021/03/02 09:26:56;;;;;;;35.00;22.67;;;;;;;;;;6205995;23;20174;-80
2021/03/02 09:29:25;;;;;;;28.53;20.70;;;;;;;;;;6215569;22;20226;-81
2021/03/02 09:31:55;;;;;;;30.77;21.13;;;;;;;;;;6182726;23;20200;-80
2021/03/02 09:34:31;;;;;;;31.37;21.60;;;;;;;;;;6217083;23;20178;-80
2021/03/02 09:37:04;;;;;;;30.03;20.80;;;;;;;;;;6193311;23;20198;-82
2021/03/02 09:39:32;;;;;;;30.80;20.23;;;;;;;;;;6194962;23;20509;-85
2021/03/02 09:42:00;;;;;;;28.50;19.73;;;;;;;;;;6171192;23;20167;-82
2021/03/02 09:44:33;;;;;;;32.47;22.80;;;;;;;;;;6170495;23;20169;-83
2021/03/02 09:47:04;;;;;;;28.80;19.57;;;;;;;;;;6166857;23;20177;-80
2021/03/02 09:49:39;;;;;;;29.83;21.63;;;;;;;;;;6218053;23;20170;-83
2021/03/02 09:52:25;;;;;;;26.00;19.43;;;;;;;;;;6191510;23;20183;-80
2021/03/02 09:55:13;;;;;;;28.07;19.50;;;;;;;;;;6192002;23;20212;-83
2021/03/02 09:57:58;;;;;;;28.83;20.13;;;;;;;;;;6217813;23;20174;-80
2021/03/02 10:00:27;;;;;;;28.67;20.70;;;;;;;;;;6187444;23;20170;-81
2021/03/02 10:02:57;;;;;;;31.23;21.43;;;;;;;;;;6192774;23;20163;-82
2021/03/02 10:05:36;;;;;;;30.57;21.53;;;;;;;;;;6237677;22;20231;-82
2021/03/02 10:08:35;;;;;;;27.07;20.10;;;;;;;;;;6212098;23;20182;-82
2021/03/02 10:11:13;;;;;;;32.17;21.03;;;;;;;;;;6118194;23;20162;-82
2021/03/02 10:13:47;;;;;;;28.43;20.93;;;;;;;;;;6147294;23;20199;-82
2021/03/02 10:16:22;;;;;;;28.73;21.10;;;;;;;;;;6164530;23;20187;-80
2021/03/02 10:18:55;;;;;;;28.33;21.33;;;;;;;;;;6166405;23;20178;-80
2021/03/02 10:21:25;;;;;;;29.23;20.77;;;;;;;;;;6187500;23;20526;-80
2021/03/02 10:23:55;;;;;;;29.23;21.57;;;;;;;;;;6177987;23;20642;-84
2021/03/02 10:26:29;;;;;;;30.07;21.60;;;;;;;;;;6162044;23;20191;-83
2021/03/02 10:28:56;;;;;;;26.00;19.77;;;;;;;;;;6190033;23;20178;-81
2021/03/02 10:31:24;;;;;;;29.53;22.20;;;;;;;;;;6165443;23;20540;-82
2021/03/02 10:34:14;;;;;;;32.40;21.70;;;;;;;;;;6204740;23;20171;-81
2021/03/02 10:36:44;;;;;;;27.73;20.83;;;;;;;;;;6164959;23;20182;-82
2021/03/02 10:39:13;;;;;;;30.37;20.90;;;;;;;;;;6163949;23;20172;-82
2021/03/02 10:41:42;;;;;;;29.23;21.27;;;;;;;;;;6187340;23;20178;-80
2021/03/02 10:44:10;;;;;;;27.17;20.37;;;;;;;;;;6214086;23;20167;-80
2021/03/02 10:46:38;;;;;;;30.17;21.50;;;;;;;;;;6189467;23;20199;-80
2021/03/02 10:49:07;;;;;;;29.37;19.97;;;;;;;;;;6164492;23;20182;-81
2021/03/02 10:51:35;;;;;;;26.87;20.37;;;;;;;;;;6189067;23;20171;-81
2021/03/02 10:54:05;;;;;;;27.57;21.17;;;;;;;;;;6188340;23;20187;-81
2021/03/02 10:56:33;;;;;;;31.17;21.80;;;;;;;;;;6159576;23;20197;-80
2021/03/02 10:59:01;;;;;;;27.60;21.70;;;;;;;;;;6181454;23;20167;-80
2021/03/02 11:01:29;;;;;;;24.30;19.53;;;;;;;;;;6162880;23;20179;-80
2021/03/02 11:03:57;;;;;;;31.07;21.63;;;;;;;;;;6194305;23;20194;-81
2021/03/02 11:06:25;;;;;;;25.30;19.63;;;;;;;;;;6195341;23;20184;-82
2021/03/02 11:09:01;;;;;;;28.87;22.17;;;;;;;;;;6218917;23;20151;-85
2021/03/02 11:11:29;;;;;;;26.60;22.50;;;;;;;;;;6168913;23;20164;-81
2021/03/02 11:13:57;;;;;;;26.40;21.63;;;;;;;;;;6192540;23;20207;-81
2021/03/02 11:16:25;;;;;;;26.20;22.88;;;;;;;;;;6191305;23;20201;-79
2021/03/02 11:18:54;;;;;;;23.52;21.13;;;;;;;;;;6167139;23;20174;-80
2021/03/02 11:21:23;;;;;;;23.77;20.75;;;;;;;;;;6166477;23;20168;-80
2021/03/02 11:23:51;;;;;;;23.25;20.42;;;;;;;;;;6191686;23;20174;-80
2021/03/02 11:26:19;;;;;;;24.13;21.63;;;;;;;;;;6191899;23;20188;-80
2021/03/02 11:28:47;;;;;;;25.80;22.27;;;;;;;;;;6184102;23;20178;-80
2021/03/02 11:31:15;;;;;;;25.85;23.02;;;;;;;;;;6192091;23;20168;-82
2021/03/02 11:33:42;;;;;;;25.42;22.80;;;;;;;;;;6183339;23;20504;-81
2021/03/02 11:36:10;;;;;;;24.38;21.88;;;;;;;;;;6217818;23;20195;-80
2021/03/02 11:38:38;;;;;;;26.65;23.92;;;;;;;;;;6190347;23;20172;-79
2021/03/02 11:41:06;;;;;;;25.05;22.45;;;;;;;;;;6165356;23;20178;-82
2021/03/02 11:43:34;;;;;;;24.58;22.23;;;;;;;;;;6166907;23;20174;-77
2021/03/02 11:46:03;;;;;;;25.00;22.40;;;;;;;;;;6193333;23;20210;-80
2021/03/02 11:48:32;;;;;;;25.25;22.60;;;;;;;;;;6193585;23;20175;-80
2021/03/02 11:50:59;;;;;;;25.90;23.27;;;;;;;;;;6194723;23;20168;-78
2021/03/02 11:53:27;;;;;;;23.55;21.25;;;;;;;;;;6194062;23;20541;-79
2021/03/02 11:55:55;;;;;;;25.75;23.13;;;;;;;;;;6191593;23;20195;-80
2021/03/02 11:58:23;;;;;;;26.25;23.65;;;;;;;;;;6159616;23;20171;-81
2021/03/02 12:00:51;;;;;;;25.45;22.75;;;;;;;;;;6187318;23;20168;-80
2021/03/02 12:03:23;;;;;;;24.70;22.10;;;;;;;;;;6161466;23;20535;-80
2021/03/02 12:05:51;;;;;;;25.42;21.98;;;;;;;;;;6162072;23;20194;-80
2021/03/02 12:08:20;;;;;;;24.70;22.13;;;;;;;;;;6211040;23;20237;-80
2021/03/02 12:10:48;;;;;;;24.60;21.80;;;;;;;;;;6162390;23;20514;-80
2021/03/02 12:13:16;;;;;;;25.63;22.05;;;;;;;;;;6212597;23;20192;-79
2021/03/02 12:15:44;;;;;;;25.80;23.20;;;;;;;;;;6187268;23;20195;-79
2021/03/02 12:18:12;;;;;;;26.10;23.38;;;;;;;;;;6213087;23;20176;-80
2021/03/02 12:20:40;;;;;;;25.08;22.63;;;;;;;;;;6215144;23;20179;-79
2021/03/02 12:23:09;;;;;;;24.08;21.48;;;;;;;;;;6186689;23;20480;-80
2021/03/02 12:25:37;;;;;;;23.10;20.73;;;;;;;;;;6215379;23;20187;-80
2021/03/02 12:28:05;;;;;;;23.23;20.90;;;;;;;;;;6196472;22;20152;-79
2021/03/02 12:30:33;;;;;;;28.13;22.45;;;;;;;;;;6214977;22;20152;-79
2021/03/02 12:33:00;;;;;;;24.27;21.80;;;;;;;;;;6170936;23;20198;-79
2021/03/02 12:35:28;;;;;;;24.55;22.25;;;;;;;;;;6185647;23;20191;-79
2021/03/02 12:37:57;;;;;;;24.08;21.50;;;;;;;;;;6187311;23;20621;-79
2021/03/02 12:40:24;;;;;;;24.52;21.95;;;;;;;;;;6186525;23;20167;-79
2021/03/02 12:42:52;;;;;;;22.98;20.63;;;;;;;;;;6170028;23;20188;-79
2021/03/02 12:45:20;;;;;;;24.10;21.35;;;;;;;;;;6196353;23;20194;-78
2021/03/02 12:47:48;;;;;;;23.20;20.80;;;;;;;;;;6217584;23;20160;-78
2021/03/02 12:50:17;;;;;;;22.20;19.95;;;;;;;;;;6163183;23;20172;-79
2021/03/02 12:52:45;;;;;;;23.25;20.52;;;;;;;;;;6212290;23;20164;-79
2021/03/02 12:55:14;;;;;;;22.38;20.20;;;;;;;;;;6188737;23;20187;-79
2021/03/02 12:57:48;;;;;;;23.83;21.45;;;;;;;;;;6225192;23;20596;-79
2021/03/02 13:00:17;;;;;;;20.30;18.30;;;;;;;;;;6187376;23;20174;-79
2021/03/02 13:02:45;;;;;;;22.08;19.98;;;;;;;;;;6186034;23;20172;-80
2021/03/02 13:05:16;;;;;;;24.65;22.10;;;;;;;;;;6187709;23;20190;-79
2021/03/02 13:07:43;;;;;;;24.20;21.75;;;;;;;;;;6214116;23;20180;-79
2021/03/02 13:10:12;;;;;;;24.25;21.95;;;;;;;;;;6187248;23;20168;-79
2021/03/02 13:12:41;;;;;;;24.58;21.73;;;;;;;;;;6187878;23;20164;-78
2021/03/02 13:15:09;;;;;;;23.45;20.55;;;;;;;;;;6161646;23;20550;-79
2021/03/02 13:17:38;;;;;;;21.88;19.70;;;;;;;;;;6203643;22;20162;-80
2021/03/02 13:20:07;;;;;;;23.35;21.15;;;;;;;;;;6214073;22;20203;-79
2021/03/02 13:22:35;;;;;;;23.42;21.13;;;;;;;;;;6238872;22;20200;-81
2021/03/02 13:25:04;;;;;;;23.55;21.33;;;;;;;;;;6209377;23;20235;-81
2021/03/02 13:27:32;;;;;;;23.23;20.83;;;;;;;;;;6213101;23;20219;-79
2021/03/02 13:30:08;;;;;;;23.02;20.70;;;;;;;;;;6204214;23;20166;-79
2021/03/02 13:32:39;;;;;;;20.42;18.52;;;;;;;;;;6160484;23;20167;-79
2021/03/02 13:35:07;;;;;;;22.17;19.98;;;;;;;;;;6156308;23;20195;-79
2021/03/02 13:37:36;;;;;;;23.33;20.13;;;;;;;;;;6184850;23;20164;-79
2021/03/02 13:40:15;;;;;;;22.30;20.05;;;;;;;;;;6186665;23;20156;-78
2021/03/02 13:42:48;;;;;;;21.75;19.42;;;;;;;;;;6201929;23;20186;-79
2021/03/02 13:45:17;;;;;;;21.20;19.00;;;;;;;;;;6185277;23;20188;-79
2021/03/02 13:47:45;;;;;;;23.33;20.88;;;;;;;;;;6159985;23;20163;-79
2021/03/02 13:50:14;;;;;;;23.67;20.25;;;;;;;;;;6178062;23;20186;-79
2021/03/02 13:52:42;;;;;;;20.38;18.38;;;;;;;;;;6184717;23;20607;-79
2021/03/02 13:55:11;;;;;;;18.73;16.80;;;;;;;;;;6213091;23;20559;-79
2021/03/02 13:57:39;;;;;;;21.95;19.85;;;;;;;;;;6193766;23;20164;-80
2021/03/02 14:00:12;;;;;;;22.95;20.63;;;;;;;;;;6193648;23;20179;-79
2021/03/02 14:02:42;;;;;;;21.98;19.77;;;;;;;;;;6169605;23;20166;-79
2021/03/02 14:05:12;;;;;;;21.42;19.23;;;;;;;;;;6225079;23;20194;-80
2021/03/02 14:07:41;;;;;;;20.77;18.63;;;;;;;;;;6226788;23;20175;-79
2021/03/02 14:10:10;;;;;;;20.83;18.77;;;;;;;;;;6196813;23;20172;-79
2021/03/02 14:12:38;;;;;;;21.23;19.13;;;;;;;;;;6173045;23;20178;-80
2021/03/02 14:15:07;;;;;;;23.83;19.90;;;;;;;;;;6195531;23;20199;-80
2021/03/02 14:17:35;;;;;;;23.65;21.23;;;;;;;;;;6169889;23;20172;-80
2021/03/02 14:20:05;;;;;;;23.13;19.77;;;;;;;;;;6185936;23;20172;-79
2021/03/02 14:22:48;;;;;;;23.30;20.08;;;;;;;;;;6159863;23;20160;-79
2021/03/02 14:25:18;;;;;;;23.88;19.48;;;;;;;;;;6183897;23;20191;-80
2021/03/02 14:27:46;;;;;;;23.42;17.98;;;;;;;;;;6182675;23;20164;-79
2021/03/02 14:30:15;;;;;;;23.13;17.90;;;;;;;;;;6211115;23;20179;-78
2021/03/02 14:32:43;;;;;;;24.40;18.05;;;;;;;;;;6185816;23;20167;-78
2021/03/02 14:35:14;;;;;;;22.02;17.95;;;;;;;;;;6161918;23;20203;-79
2021/03/02 14:37:43;;;;;;;22.77;17.52;;;;;;;;;;6160038;23;20638;-80
2021/03/02 14:40:12;;;;;;;27.35;19.70;;;;;;;;;;6159848;23;20168;-80
2021/03/02 14:42:46;;;;;;;27.92;19.90;;;;;;;;;;6159707;23;20172;-79
2021/03/02 14:45:15;;;;;;;21.83;17.87;;;;;;;;;;6159819;23;20191;-79
2021/03/02 14:47:47;;;;;;;25.17;18.67;;;;;;;;;;6158612;23;20171;-80
2021/03/02 14:50:19;;;;;;;28.10;19.00;;;;;;;;;;6178048;23;20183;-79
2021/03/02 14:52:52;;;;;;;25.23;17.40;;;;;;;;;;6150234;23;20178;-80
2021/03/02 14:55:20;;;;;;;25.40;19.13;;;;;;;;;;6185509;23;20214;-79
2021/03/02 14:57:48;;;;;;;23.40;16.77;;;;;;;;;;6157983;23;20160;-79